createdAt,value
2023-01-17T00:00:07.533Z,4.36
2023-01-17T00:00:24.351Z,4.37
2023-01-17T00:00:58.413Z,4.37
2023-01-17T00:01:12.727Z,4.37
2023-01-17T00:01:25.517Z,4.37
2023-01-17T00:01:39.199Z,4.36
2023-01-17T00:01:51.773Z,4.36
2023-01-17T00:02:05.874Z,4.36
2023-01-17T00:02:19.427Z,4.36
2023-01-17T00:02:33.252Z,4.36
2023-01-17T00:02:45.960Z,4.36
2023-01-17T00:02:58.687Z,4.35
2023-01-17T00:03:11.390Z,4.36
2023-01-17T00:03:24.069Z,4.36
2023-01-17T00:03:57.604Z,4.34
2023-01-17T00:04:29.002Z,4.35
2023-01-17T00:05:00.171Z,4.37
2023-01-17T00:05:31.457Z,4.36
2023-01-17T00:06:02.962Z,4.36
2023-01-17T00:06:34.254Z,4.36
2023-01-17T00:07:05.439Z,4.37
2023-01-17T00:07:38.196Z,4.37
2023-01-17T00:08:09.338Z,4.38
2023-01-17T00:08:40.448Z,4.36
2023-01-17T00:09:10.753Z,4.38
2023-01-17T00:09:42.353Z,4.38
2023-01-17T00:09:57.009Z,4.38
2023-01-17T00:10:12.274Z,4.38
2023-01-17T00:10:27.299Z,4.39
2023-01-17T00:10:40.952Z,4.39
2023-01-17T00:10:54.539Z,4.38
2023-01-17T00:11:08.195Z,4.39
2023-01-17T00:11:20.787Z,4.42
2023-01-17T00:11:33.425Z,4.43
2023-01-17T00:11:46.636Z,4.40
2023-01-17T00:12:00.705Z,4.41
2023-01-17T00:12:14.257Z,4.41
2023-01-17T00:12:31.004Z,4.40
2023-01-17T00:12:48.180Z,4.40
2023-01-17T00:13:02.354Z,4.38
2023-01-17T00:13:14.972Z,4.39
2023-01-17T00:13:27.694Z,4.38
2023-01-17T00:13:41.307Z,4.39
2023-01-17T00:13:53.948Z,4.39
2023-01-17T00:14:06.673Z,4.38
2023-01-17T00:14:19.573Z,4.38
2023-01-17T00:14:32.210Z,4.39
2023-01-17T00:14:44.998Z,4.39
2023-01-17T00:14:59.057Z,4.39
2023-01-17T00:15:12.793Z,4.38
2023-01-17T00:15:26.280Z,4.38
2023-01-17T00:15:40.038Z,4.39
2023-01-17T00:15:53.124Z,4.40
2023-01-17T00:16:07.918Z,4.40
2023-01-17T00:16:20.592Z,4.40
2023-01-17T00:16:33.277Z,4.41
2023-01-17T00:16:46.875Z,4.40
2023-01-17T00:17:01.195Z,4.41
2023-01-17T00:17:13.892Z,4.41
2023-01-17T00:17:27.810Z,4.42
2023-01-17T00:17:40.401Z,4.41
2023-01-17T00:17:54.780Z,4.42
2023-01-17T00:18:07.358Z,4.42
2023-01-17T00:18:20.333Z,4.43
2023-01-17T00:18:32.913Z,4.42
2023-01-17T00:19:05.654Z,4.42
2023-01-17T00:19:36.781Z,4.42
2023-01-17T00:20:07.928Z,4.41
2023-01-17T00:20:42.082Z,4.42
2023-01-17T00:21:13.149Z,4.43
2023-01-17T00:21:43.890Z,4.43
2023-01-17T00:22:14.955Z,4.44
2023-01-17T00:22:48.014Z,4.44
2023-01-17T00:23:19.135Z,4.44
2023-01-17T00:23:55.757Z,4.45
2023-01-17T00:24:27.633Z,4.45
2023-01-17T00:24:58.780Z,4.45
2023-01-17T00:25:31.023Z,4.44
2023-01-17T00:26:02.239Z,4.47
2023-01-17T00:26:19.239Z,4.46
2023-01-17T00:26:32.265Z,4.45
2023-01-17T00:26:59.735Z,4.45
2023-01-17T00:27:12.188Z,4.47
2023-01-17T00:27:24.717Z,4.46
2023-01-17T00:27:37.454Z,4.45
2023-01-17T00:27:49.994Z,4.47
2023-01-17T00:28:02.917Z,4.47
2023-01-17T00:28:15.576Z,4.45
2023-01-17T00:28:28.722Z,4.44
2023-01-17T00:28:43.125Z,4.45
2023-01-17T00:28:55.587Z,4.46
2023-01-17T00:29:08.019Z,4.46
2023-01-17T00:29:20.460Z,4.47
2023-01-17T00:29:32.907Z,4.48
2023-01-17T00:29:45.326Z,4.47
2023-01-17T00:29:57.747Z,4.47
2023-01-17T00:30:11.893Z,4.47
2023-01-17T00:30:24.960Z,4.46
2023-01-17T00:30:37.470Z,4.46
2023-01-17T00:30:50.332Z,4.47
2023-01-17T00:31:03.809Z,4.46
2023-01-17T00:31:20.151Z,4.46
2023-01-17T00:31:33.023Z,4.46
2023-01-17T00:31:45.513Z,4.47
2023-01-17T00:31:57.986Z,4.47
2023-01-17T00:32:10.434Z,4.46
2023-01-17T00:32:22.959Z,4.46
2023-01-17T00:32:35.422Z,4.47
2023-01-17T00:32:47.867Z,4.47
2023-01-17T00:33:00.492Z,4.47
2023-01-17T00:33:13.285Z,4.45
2023-01-17T00:33:25.969Z,4.45
2023-01-17T00:33:38.663Z,4.46
2023-01-17T00:33:51.124Z,4.46
2023-01-17T00:34:03.564Z,4.46
2023-01-17T00:34:16.019Z,4.46
2023-01-17T00:34:28.492Z,4.46
2023-01-17T00:34:40.961Z,4.46
2023-01-17T00:34:53.403Z,4.45
2023-01-17T00:35:06.677Z,4.47
2023-01-17T00:35:20.511Z,4.47
2023-01-17T00:35:34.227Z,4.47
2023-01-17T00:35:46.793Z,4.46
2023-01-17T00:36:00.219Z,4.46
2023-01-17T00:36:12.907Z,4.46
2023-01-17T00:36:25.337Z,4.46
2023-01-17T00:36:37.774Z,4.45
2023-01-17T00:36:50.209Z,4.47
2023-01-17T00:37:02.640Z,4.45
2023-01-17T00:37:15.080Z,4.46
2023-01-17T00:37:27.529Z,4.46
2023-01-17T00:37:39.962Z,4.45
2023-01-17T00:38:01.258Z,4.46
2023-01-17T00:38:15.256Z,4.44
2023-01-17T00:38:29.673Z,4.45
2023-01-17T00:38:42.145Z,4.46
2023-01-17T00:38:54.598Z,4.46
2023-01-17T00:39:07.045Z,4.46
2023-01-17T00:39:19.473Z,4.46
2023-01-17T00:39:31.929Z,4.46
2023-01-17T00:39:44.641Z,4.46
2023-01-17T00:39:57.064Z,4.47
2023-01-17T00:40:10.898Z,4.46
2023-01-17T00:40:23.351Z,4.47
2023-01-17T00:40:37.443Z,4.46
2023-01-17T00:40:50.766Z,4.48
2023-01-17T00:41:04.624Z,4.48
2023-01-17T00:41:17.101Z,4.49
2023-01-17T00:41:29.621Z,4.47
2023-01-17T00:41:42.092Z,4.48
2023-01-17T00:41:54.554Z,4.49
2023-01-17T00:42:07.033Z,4.49
2023-01-17T00:42:19.472Z,4.50
2023-01-17T00:42:31.972Z,4.50
2023-01-17T00:42:47.163Z,4.50
2023-01-17T00:43:18.289Z,4.52
2023-01-17T00:43:50.019Z,4.50
2023-01-17T00:44:21.137Z,4.52
2023-01-17T00:44:52.469Z,4.50
2023-01-17T00:45:24.787Z,4.53
2023-01-17T00:45:55.546Z,4.54
2023-01-17T00:46:26.918Z,4.57
2023-01-17T00:46:59.410Z,4.55
2023-01-17T00:47:30.568Z,4.55
2023-01-17T00:48:03.430Z,4.54
2023-01-17T00:48:34.237Z,4.52
2023-01-17T00:49:05.305Z,4.54
2023-01-17T00:49:36.656Z,4.54
2023-01-17T00:50:07.431Z,4.51
2023-01-17T00:50:38.561Z,4.53
2023-01-17T00:51:09.355Z,4.53
2023-01-17T00:51:40.511Z,4.53
2023-01-17T00:52:11.916Z,4.52
2023-01-17T00:52:43.021Z,4.54
2023-01-17T00:53:14.046Z,4.55
2023-01-17T00:53:45.388Z,4.53
2023-01-17T00:54:18.908Z,4.54
2023-01-17T00:54:50.206Z,4.54
2023-01-17T00:55:21.167Z,4.53
2023-01-17T00:55:52.179Z,4.53
2023-01-17T00:56:23.761Z,4.53
2023-01-17T00:56:54.881Z,4.54
2023-01-17T00:57:26.096Z,4.54
2023-01-17T00:57:57.264Z,4.55
2023-01-17T00:58:28.464Z,4.55
2023-01-17T00:58:59.570Z,4.55
2023-01-17T00:59:30.684Z,4.53
2023-01-17T01:00:01.731Z,4.54
2023-01-17T01:00:33.302Z,4.54
2023-01-17T01:01:04.506Z,4.53
2023-01-17T01:01:36.645Z,4.53
2023-01-17T01:02:09.280Z,4.55
2023-01-17T01:02:41.007Z,4.54
2023-01-17T01:03:12.230Z,4.56
2023-01-17T01:03:43.249Z,4.56
2023-01-17T01:04:14.246Z,4.55
2023-01-17T01:04:45.258Z,4.57
2023-01-17T01:05:16.271Z,4.57
2023-01-17T01:05:47.071Z,4.57
2023-01-17T01:06:18.091Z,4.58
2023-01-17T01:06:49.146Z,4.58
2023-01-17T01:07:20.753Z,4.59
2023-01-17T01:07:51.935Z,4.59
2023-01-17T01:08:38.422Z,4.58
2023-01-17T01:09:10.252Z,4.61
2023-01-17T01:09:41.053Z,4.61
2023-01-17T01:10:12.091Z,4.61
2023-01-17T01:10:42.935Z,4.60
2023-01-17T01:11:13.932Z,4.59
2023-01-17T01:11:44.874Z,4.58
2023-01-17T01:12:16.208Z,4.59
2023-01-17T01:12:47.220Z,4.60
2023-01-17T01:13:18.244Z,4.59
2023-01-17T01:13:50.856Z,4.59
2023-01-17T01:14:22.936Z,4.60
2023-01-17T01:14:54.260Z,4.60
2023-01-17T01:15:26.934Z,4.59
2023-01-17T01:15:57.936Z,4.59
2023-01-17T01:16:29.883Z,4.60
2023-01-17T01:17:01.016Z,4.61
2023-01-17T01:17:33.528Z,4.60
2023-01-17T01:18:04.624Z,4.59
2023-01-17T01:18:35.787Z,4.60
2023-01-17T01:19:06.793Z,4.60
2023-01-17T01:19:37.660Z,4.59
2023-01-17T01:20:08.782Z,4.60
2023-01-17T01:20:39.549Z,4.59
2023-01-17T01:21:10.741Z,4.60
2023-01-17T01:21:41.934Z,4.60
2023-01-17T01:22:13.040Z,4.61
2023-01-17T01:22:43.887Z,4.61
2023-01-17T01:23:14.947Z,4.59
2023-01-17T01:23:46.069Z,4.59
2023-01-17T01:24:17.216Z,4.60
2023-01-17T01:24:48.174Z,4.58
2023-01-17T01:25:19.307Z,4.58
2023-01-17T01:25:50.746Z,4.58
2023-01-17T01:26:22.325Z,4.58
2023-01-17T01:26:53.318Z,4.57
2023-01-17T01:27:24.332Z,4.58
2023-01-17T01:27:55.461Z,4.57
2023-01-17T01:28:30.625Z,4.59
2023-01-17T01:29:01.724Z,4.60
2023-01-17T01:29:32.622Z,4.61
2023-01-17T01:30:04.389Z,4.61
2023-01-17T01:30:35.614Z,4.60
2023-01-17T01:31:07.544Z,4.61
2023-01-17T01:31:38.967Z,4.62
2023-01-17T01:32:10.213Z,4.61
2023-01-17T01:32:43.080Z,4.62
2023-01-17T01:33:14.075Z,4.63
2023-01-17T01:33:26.545Z,4.62
2023-01-17T01:33:40.139Z,4.61
2023-01-17T01:33:53.673Z,4.62
2023-01-17T01:34:06.246Z,4.62
2023-01-17T01:34:18.967Z,4.63
2023-01-17T01:34:31.525Z,4.63
2023-01-17T01:34:44.099Z,4.62
2023-01-17T01:34:56.682Z,4.63
2023-01-17T01:35:10.257Z,4.63
2023-01-17T01:35:23.512Z,4.62
2023-01-17T01:35:36.576Z,4.62
2023-01-17T01:35:51.096Z,4.62
2023-01-17T01:36:04.033Z,4.62
2023-01-17T01:36:16.674Z,4.62
2023-01-17T01:36:30.280Z,4.62
2023-01-17T01:36:42.867Z,4.61
2023-01-17T01:36:55.437Z,4.60
2023-01-17T01:37:08.007Z,4.60
2023-01-17T01:37:20.594Z,4.61
2023-01-17T01:37:33.197Z,4.60
2023-01-17T01:37:45.815Z,4.60
2023-01-17T01:37:59.651Z,4.60
2023-01-17T01:38:12.272Z,4.61
2023-01-17T01:38:26.448Z,4.61
2023-01-17T01:38:39.644Z,4.60
2023-01-17T01:38:53.552Z,4.61
2023-01-17T01:39:06.383Z,4.59
2023-01-17T01:39:20.042Z,4.59
2023-01-17T01:39:32.651Z,4.59
2023-01-17T01:39:45.235Z,4.59
2023-01-17T01:39:57.876Z,4.60
2023-01-17T01:40:11.437Z,4.58
2023-01-17T01:40:24.193Z,4.60
2023-01-17T01:40:42.451Z,4.59
2023-01-17T01:40:57.700Z,4.58
2023-01-17T01:41:10.310Z,4.59
2023-01-17T01:41:23.304Z,4.59
2023-01-17T01:41:35.879Z,4.59
2023-01-17T01:41:48.798Z,4.59
2023-01-17T01:42:01.384Z,4.59
2023-01-17T01:42:15.372Z,4.59
2023-01-17T01:42:28.915Z,4.58
2023-01-17T01:42:49.345Z,4.59
2023-01-17T01:43:05.724Z,4.59
2023-01-17T01:43:20.980Z,4.59
2023-01-17T01:43:44.046Z,4.59
2023-01-17T01:43:57.622Z,4.58
2023-01-17T01:44:44.689Z,4.60
2023-01-17T01:44:57.537Z,4.59
2023-01-17T01:45:17.384Z,4.59
2023-01-17T01:45:33.200Z,4.59
2023-01-17T01:45:50.578Z,4.60
2023-01-17T01:46:03.907Z,4.59
2023-01-17T01:46:21.533Z,4.60
2023-01-17T01:46:40.315Z,4.59
2023-01-17T01:46:52.902Z,4.59
2023-01-17T01:47:05.604Z,4.60
2023-01-17T01:47:27.016Z,4.60
2023-01-17T01:47:40.823Z,4.62
2023-01-17T01:47:57.725Z,4.61
2023-01-17T01:48:24.267Z,4.62
2023-01-17T01:48:40.840Z,4.61
2023-01-17T01:48:56.144Z,4.63
2023-01-17T01:49:18.591Z,4.61
2023-01-17T01:49:31.236Z,4.61
2023-01-17T01:49:44.388Z,4.62
2023-01-17T01:50:00.271Z,4.61
2023-01-17T01:50:15.002Z,4.61
2023-01-17T01:50:29.534Z,4.62
2023-01-17T01:50:44.051Z,4.62
2023-01-17T01:50:56.896Z,4.62
2023-01-17T01:51:16.036Z,4.62
2023-01-17T01:51:33.408Z,4.62
2023-01-17T01:51:49.817Z,4.63
2023-01-17T01:52:05.807Z,4.63
2023-01-17T01:52:22.495Z,4.64
2023-01-17T01:52:40.119Z,4.63
2023-01-17T01:52:56.150Z,4.62
2023-01-17T01:53:08.752Z,4.63
2023-01-17T01:53:21.952Z,4.61
2023-01-17T01:53:38.378Z,4.62
2023-01-17T01:53:59.768Z,4.61
2023-01-17T01:54:17.915Z,4.62
2023-01-17T01:54:36.525Z,4.60
2023-01-17T01:54:55.040Z,4.61
2023-01-17T01:55:11.620Z,4.62
2023-01-17T01:55:27.884Z,4.62
2023-01-17T01:55:43.410Z,4.61
2023-01-17T01:55:56.212Z,4.61
2023-01-17T01:56:13.264Z,4.61
2023-01-17T01:56:26.717Z,4.61
2023-01-17T01:56:39.854Z,4.62
2023-01-17T01:56:55.887Z,4.62
2023-01-17T01:57:12.867Z,4.61
2023-01-17T01:57:30.716Z,4.62
2023-01-17T01:57:47.466Z,4.65
2023-01-17T01:58:07.596Z,4.64
2023-01-17T01:58:23.126Z,4.66
2023-01-17T01:58:38.429Z,4.64
2023-01-17T01:58:52.641Z,4.66
2023-01-17T01:59:08.914Z,4.65
2023-01-17T01:59:22.997Z,4.62
2023-01-17T01:59:39.012Z,4.62
2023-01-17T01:59:55.799Z,4.63
2023-01-17T02:00:17.555Z,4.63
2023-01-17T02:00:33.773Z,4.63
2023-01-17T02:00:46.557Z,4.63
2023-01-17T02:00:59.257Z,4.62
2023-01-17T02:01:12.222Z,4.62
2023-01-17T02:01:25.027Z,4.62
2023-01-17T02:01:38.819Z,4.61
2023-01-17T02:01:56.098Z,4.63
2023-01-17T02:02:08.893Z,4.62
2023-01-17T02:02:21.787Z,4.62
2023-01-17T02:02:36.053Z,4.63
2023-01-17T02:02:51.212Z,4.63
2023-01-17T02:03:08.077Z,4.62
2023-01-17T02:03:26.027Z,4.63
2023-01-17T02:03:41.177Z,4.61
2023-01-17T02:03:53.872Z,4.62
2023-01-17T02:04:10.107Z,4.62
2023-01-17T02:04:24.145Z,4.62
2023-01-17T02:04:37.155Z,4.64
2023-01-17T02:04:50.872Z,4.63
2023-01-17T02:05:04.835Z,4.63
2023-01-17T02:05:20.724Z,4.65
2023-01-17T02:05:36.343Z,4.64
2023-01-17T02:05:49.188Z,4.65
2023-01-17T02:06:12.376Z,4.65
2023-01-17T02:06:29.272Z,4.64
2023-01-17T02:06:45.949Z,4.64
2023-01-17T02:07:06.707Z,4.64
2023-01-17T02:07:23.961Z,4.64
2023-01-17T02:07:43.914Z,4.63
2023-01-17T02:08:02.747Z,4.64
2023-01-17T02:08:18.031Z,4.64
2023-01-17T02:08:32.544Z,4.64
2023-01-17T02:08:45.522Z,4.64
2023-01-17T02:09:00.982Z,4.65
2023-01-17T02:09:15.469Z,4.65
2023-01-17T02:09:28.145Z,4.65
2023-01-17T02:09:41.598Z,4.65
2023-01-17T02:09:55.044Z,4.65
2023-01-17T02:10:09.733Z,4.64
2023-01-17T02:10:22.310Z,4.64
2023-01-17T02:10:36.436Z,4.62
2023-01-17T02:10:49.871Z,4.62
2023-01-17T02:11:03.182Z,4.63
2023-01-17T02:11:15.884Z,4.64
2023-01-17T02:11:29.550Z,4.63
2023-01-17T02:11:42.699Z,4.63
2023-01-17T02:11:55.340Z,4.64
2023-01-17T02:12:09.198Z,4.64
2023-01-17T02:12:22.211Z,4.63
2023-01-17T02:12:35.608Z,4.63
2023-01-17T02:12:49.510Z,4.63
2023-01-17T02:13:04.215Z,4.62
2023-01-17T02:13:19.406Z,4.64
2023-01-17T02:13:32.004Z,4.64
2023-01-17T02:13:44.624Z,4.63
2023-01-17T02:13:57.175Z,4.64
2023-01-17T02:14:15.276Z,4.64
2023-01-17T02:14:27.909Z,4.63
2023-01-17T02:14:42.259Z,4.63
2023-01-17T02:14:55.566Z,4.65
2023-01-17T02:15:09.112Z,4.65
2023-01-17T02:15:25.580Z,4.65
2023-01-17T02:15:48.664Z,4.65
2023-01-17T02:16:09.657Z,4.65
2023-01-17T02:16:49.985Z,4.65
2023-01-17T02:17:12.419Z,4.65
2023-01-17T02:17:33.965Z,4.65
2023-01-17T02:17:59.654Z,4.65
2023-01-17T02:18:21.623Z,4.65
2023-01-17T02:18:50.205Z,4.67
2023-01-17T02:19:22.592Z,4.68
2023-01-17T02:20:08.591Z,4.68
2023-01-17T02:20:58.712Z,4.65
2023-01-17T02:21:26.371Z,4.65
2023-01-17T02:21:46.486Z,4.63
2023-01-17T02:22:17.264Z,4.63
2023-01-17T02:23:03.437Z,4.62
2023-01-17T02:23:44.239Z,4.62
2023-01-17T02:24:26.523Z,4.62
2023-01-17T02:25:03.691Z,4.62
2023-01-17T02:25:38.838Z,4.62
2023-01-17T02:26:16.660Z,4.62
2023-01-17T02:26:47.933Z,4.62
2023-01-17T02:27:08.341Z,4.60
2023-01-17T02:27:26.081Z,4.62
2023-01-17T02:27:56.413Z,4.62
2023-01-17T02:28:24.634Z,4.61
2023-01-17T02:29:01.561Z,4.62
2023-01-17T02:29:49.884Z,4.64
2023-01-17T02:30:28.618Z,4.62
2023-01-17T02:30:46.230Z,4.61
2023-01-17T02:31:06.823Z,4.61
2023-01-17T02:31:26.903Z,4.61
2023-01-17T02:31:46.244Z,4.60
2023-01-17T02:32:05.251Z,4.60
2023-01-17T02:32:23.552Z,4.61
2023-01-17T02:32:45.672Z,4.62
2023-01-17T02:33:15.644Z,4.61
2023-01-17T02:33:36.017Z,4.62
2023-01-17T02:33:57.785Z,4.61
2023-01-17T02:34:17.541Z,4.59
2023-01-17T02:34:37.148Z,4.60
2023-01-17T02:34:55.957Z,4.58
2023-01-17T02:35:18.458Z,4.61
2023-01-17T02:35:38.042Z,4.61
2023-01-17T02:36:04.190Z,4.58
2023-01-17T02:36:24.186Z,4.59
2023-01-17T02:36:43.492Z,4.58
2023-01-17T02:37:05.508Z,4.56
2023-01-17T02:37:23.979Z,4.55
2023-01-17T02:37:45.889Z,4.55
2023-01-17T02:38:07.219Z,4.54
2023-01-17T02:38:31.664Z,4.54
2023-01-17T02:38:51.620Z,4.53
2023-01-17T02:39:09.594Z,4.53
2023-01-17T02:39:24.445Z,4.54
2023-01-17T02:39:43.571Z,4.53
2023-01-17T02:40:00.516Z,4.53
2023-01-17T02:40:19.510Z,4.54
2023-01-17T02:40:38.193Z,4.52
2023-01-17T02:40:56.011Z,4.53
2023-01-17T02:41:16.868Z,4.53
2023-01-17T02:41:33.546Z,4.53
2023-01-17T02:41:49.085Z,4.53
2023-01-17T02:42:07.573Z,4.53
2023-01-17T02:42:26.552Z,4.53
2023-01-17T02:42:46.625Z,4.53
2023-01-17T02:43:05.649Z,4.54
2023-01-17T02:43:20.209Z,4.55
2023-01-17T02:43:33.803Z,4.54
2023-01-17T02:43:50.304Z,4.54
2023-01-17T02:44:03.897Z,4.55
2023-01-17T02:44:19.175Z,4.56
2023-01-17T02:44:40.888Z,4.55
2023-01-17T02:44:53.544Z,4.54
2023-01-17T02:45:07.966Z,4.55
2023-01-17T02:45:21.149Z,4.56
2023-01-17T02:45:36.361Z,4.56
2023-01-17T02:45:49.015Z,4.56
2023-01-17T02:46:01.665Z,4.55
2023-01-17T02:46:14.366Z,4.55
2023-01-17T02:46:26.933Z,4.55
2023-01-17T02:46:46.683Z,4.52
2023-01-17T02:46:59.416Z,4.53
2023-01-17T02:47:24.975Z,4.53
2023-01-17T02:47:37.856Z,4.53
2023-01-17T02:47:50.430Z,4.53
2023-01-17T02:48:03.372Z,4.54
2023-01-17T02:48:20.060Z,4.51
2023-01-17T02:48:37.631Z,4.51
2023-01-17T02:48:51.776Z,4.53
2023-01-17T02:49:04.336Z,4.53
2023-01-17T02:49:19.451Z,4.53
2023-01-17T02:49:32.860Z,4.53
2023-01-17T02:49:45.493Z,4.53
2023-01-17T02:50:02.194Z,4.54
2023-01-17T02:50:20.938Z,4.52
2023-01-17T02:50:46.541Z,4.53
2023-01-17T02:51:24.257Z,4.54
2023-01-17T02:52:07.190Z,4.56
2023-01-17T02:52:36.270Z,4.54
2023-01-17T02:53:03.733Z,4.55
2023-01-17T02:53:31.202Z,4.55
2023-01-17T02:53:58.551Z,4.52
2023-01-17T02:54:47.193Z,4.53
2023-01-17T02:55:13.267Z,4.50
2023-01-17T02:55:37.933Z,4.50
2023-01-17T02:55:57.353Z,4.48
2023-01-17T02:56:19.498Z,4.48
2023-01-17T02:56:45.117Z,4.47
2023-01-17T02:57:12.179Z,4.46
2023-01-17T02:57:47.917Z,4.46
2023-01-17T02:58:22.343Z,4.47
2023-01-17T02:58:49.184Z,4.45
2023-01-17T02:59:16.635Z,4.44
2023-01-17T02:59:39.040Z,4.44
2023-01-17T02:59:57.652Z,4.44
2023-01-17T03:00:21.757Z,4.44
2023-01-17T03:00:48.877Z,4.44
2023-01-17T03:01:10.129Z,4.44
2023-01-17T03:01:30.203Z,4.43
2023-01-17T03:01:58.495Z,4.43
2023-01-17T03:02:23.076Z,4.43
2023-01-17T03:02:43.064Z,4.45
2023-01-17T03:03:02.345Z,4.44
2023-01-17T03:03:23.144Z,4.44
2023-01-17T03:03:42.905Z,4.44
2023-01-17T03:04:01.672Z,4.44
2023-01-17T03:04:20.656Z,4.45
2023-01-17T03:04:39.183Z,4.46
2023-01-17T03:04:55.811Z,4.44
2023-01-17T03:05:13.420Z,4.45
2023-01-17T03:05:32.557Z,4.44
2023-01-17T03:05:52.910Z,4.45
2023-01-17T03:06:12.025Z,4.45
2023-01-17T03:06:30.332Z,4.43
2023-01-17T03:06:48.163Z,4.44
2023-01-17T03:07:06.230Z,4.46
2023-01-17T03:07:23.485Z,4.45
2023-01-17T03:07:39.953Z,4.45
2023-01-17T03:07:53.822Z,4.44
2023-01-17T03:08:07.585Z,4.44
2023-01-17T03:08:22.367Z,4.45
2023-01-17T03:08:35.106Z,4.44
2023-01-17T03:08:50.608Z,4.45
2023-01-17T03:09:04.268Z,4.46
2023-01-17T03:09:18.573Z,4.46
2023-01-17T03:09:32.586Z,4.45
2023-01-17T03:09:49.441Z,4.45
2023-01-17T03:10:05.327Z,4.45
2023-01-17T03:10:19.283Z,4.45
2023-01-17T03:10:35.257Z,4.44
2023-01-17T03:10:47.882Z,4.44
2023-01-17T03:11:01.536Z,4.44
2023-01-17T03:11:14.849Z,4.44
2023-01-17T03:11:27.838Z,4.41
2023-01-17T03:11:40.847Z,4.42
2023-01-17T03:11:53.728Z,4.41
2023-01-17T03:12:09.399Z,4.40
2023-01-17T03:12:22.135Z,4.40
2023-01-17T03:12:39.334Z,4.40
2023-01-17T03:12:57.792Z,4.41
2023-01-17T03:13:10.493Z,4.41
2023-01-17T03:13:23.126Z,4.42
2023-01-17T03:13:35.774Z,4.42
2023-01-17T03:13:48.402Z,4.40
2023-01-17T03:14:01.968Z,4.41
2023-01-17T03:14:14.589Z,4.41
2023-01-17T03:14:30.222Z,4.42
2023-01-17T03:14:42.774Z,4.41
2023-01-17T03:14:55.380Z,4.41
2023-01-17T03:15:10.951Z,4.43
2023-01-17T03:15:23.620Z,4.42
2023-01-17T03:15:40.034Z,4.42
2023-01-17T03:15:53.164Z,4.43
2023-01-17T03:16:12.775Z,4.42
2023-01-17T03:16:27.897Z,4.41
2023-01-17T03:16:40.600Z,4.42
2023-01-17T03:16:54.388Z,4.42
2023-01-17T03:17:07.386Z,4.41
2023-01-17T03:17:20.425Z,4.40
2023-01-17T03:17:33.281Z,4.41
2023-01-17T03:17:49.411Z,4.41
2023-01-17T03:18:05.207Z,4.39
2023-01-17T03:18:17.889Z,4.41
2023-01-17T03:18:31.490Z,4.41
2023-01-17T03:18:44.167Z,4.40
2023-01-17T03:18:56.795Z,4.40
2023-01-17T03:19:09.918Z,4.40
2023-01-17T03:19:22.491Z,4.39
2023-01-17T03:19:35.148Z,4.40
2023-01-17T03:19:48.055Z,4.40
2023-01-17T03:20:00.663Z,4.39
2023-01-17T03:20:14.341Z,4.40
2023-01-17T03:20:27.237Z,4.39
2023-01-17T03:20:40.033Z,4.39
2023-01-17T03:20:52.618Z,4.40
2023-01-17T03:21:05.412Z,4.41
2023-01-17T03:21:18.007Z,4.39
2023-01-17T03:21:31.922Z,4.38
2023-01-17T03:21:44.521Z,4.38
2023-01-17T03:21:57.165Z,4.38
2023-01-17T03:22:09.799Z,4.37
2023-01-17T03:22:22.420Z,4.37
2023-01-17T03:22:35.000Z,4.38
2023-01-17T03:22:47.599Z,4.36
2023-01-17T03:23:00.205Z,4.38
2023-01-17T03:23:13.783Z,4.37
2023-01-17T03:23:26.595Z,4.38
2023-01-17T03:23:39.224Z,4.37
2023-01-17T03:23:52.625Z,4.36
2023-01-17T03:24:05.722Z,4.38
2023-01-17T03:24:18.285Z,4.36
2023-01-17T03:24:31.000Z,4.37
2023-01-17T03:24:44.576Z,4.37
2023-01-17T03:24:57.164Z,4.36
2023-01-17T03:25:10.467Z,4.36
2023-01-17T03:25:23.120Z,4.36
2023-01-17T03:25:35.705Z,4.36
2023-01-17T03:25:48.346Z,4.37
2023-01-17T03:26:02.092Z,4.37
2023-01-17T03:26:14.828Z,4.37
2023-01-17T03:26:27.401Z,4.38
2023-01-17T03:26:39.982Z,4.37
2023-01-17T03:26:52.581Z,4.37
2023-01-17T03:27:05.181Z,4.37
2023-01-17T03:27:17.811Z,4.38
2023-01-17T03:27:31.359Z,4.39
2023-01-17T03:27:44.281Z,4.38
2023-01-17T03:27:56.914Z,4.38
2023-01-17T03:28:09.521Z,4.38
2023-01-17T03:28:22.120Z,4.39
2023-01-17T03:28:34.725Z,4.39
2023-01-17T03:28:47.347Z,4.39
2023-01-17T03:29:00.974Z,4.40
2023-01-17T03:29:13.588Z,4.40
2023-01-17T03:29:26.165Z,4.40
2023-01-17T03:29:38.772Z,4.40
2023-01-17T03:29:51.395Z,4.39
2023-01-17T03:30:04.701Z,4.39
2023-01-17T03:30:17.900Z,4.41
2023-01-17T03:30:31.529Z,4.41
2023-01-17T03:30:45.581Z,4.41
2023-01-17T03:30:58.215Z,4.41
2023-01-17T03:31:14.762Z,4.40
2023-01-17T03:31:27.400Z,4.44
2023-01-17T03:31:40.266Z,4.45
2023-01-17T03:31:53.064Z,4.44
2023-01-17T03:32:07.148Z,4.44
2023-01-17T03:32:19.722Z,4.43
2023-01-17T03:32:32.323Z,4.43
2023-01-17T03:32:44.892Z,4.42
2023-01-17T03:32:57.497Z,4.42
2023-01-17T03:33:10.068Z,4.42
2023-01-17T03:33:23.672Z,4.42
2023-01-17T03:33:36.601Z,4.42
2023-01-17T03:33:49.244Z,4.41
2023-01-17T03:34:01.830Z,4.42
2023-01-17T03:34:14.416Z,4.41
2023-01-17T03:34:26.985Z,4.41
2023-01-17T03:34:39.615Z,4.40
2023-01-17T03:34:53.153Z,4.41
2023-01-17T03:35:06.864Z,4.40
2023-01-17T03:35:19.461Z,4.38
2023-01-17T03:35:32.071Z,4.40
2023-01-17T03:35:45.227Z,4.40
2023-01-17T03:35:59.303Z,4.40
2023-01-17T03:36:12.286Z,4.40
2023-01-17T03:36:24.922Z,4.38
2023-01-17T03:36:37.473Z,4.38
2023-01-17T03:36:50.085Z,4.38
2023-01-17T03:37:02.653Z,4.38
2023-01-17T03:37:15.322Z,4.37
2023-01-17T03:37:27.874Z,4.38
2023-01-17T03:37:41.434Z,4.38
2023-01-17T03:37:54.057Z,4.38
2023-01-17T03:38:06.646Z,4.37
2023-01-17T03:38:19.557Z,4.37
2023-01-17T03:38:32.126Z,4.38
2023-01-17T03:38:44.688Z,4.37
2023-01-17T03:38:58.334Z,4.36
2023-01-17T03:39:11.721Z,4.36
2023-01-17T03:39:24.304Z,4.37
2023-01-17T03:39:36.984Z,4.37
2023-01-17T03:39:49.862Z,4.36
2023-01-17T03:40:02.467Z,4.38
2023-01-17T03:40:15.339Z,4.38
2023-01-17T03:40:27.917Z,4.36
2023-01-17T03:40:40.692Z,4.37
2023-01-17T03:40:54.541Z,4.38
2023-01-17T03:41:08.207Z,4.38
2023-01-17T03:41:20.782Z,4.38
2023-01-17T03:41:33.370Z,4.37
2023-01-17T03:41:45.970Z,4.39
2023-01-17T03:41:58.569Z,4.39
2023-01-17T03:42:11.151Z,4.37
2023-01-17T03:42:24.764Z,4.37
2023-01-17T03:42:37.337Z,4.36
2023-01-17T03:42:49.929Z,4.36
2023-01-17T03:43:02.502Z,4.37
2023-01-17T03:43:15.094Z,4.38
2023-01-17T03:43:27.683Z,4.38
2023-01-17T03:43:41.276Z,4.38
2023-01-17T03:43:54.109Z,4.38
2023-01-17T03:44:06.827Z,4.38
2023-01-17T03:44:19.428Z,4.38
2023-01-17T03:44:32.011Z,4.38
2023-01-17T03:44:44.623Z,4.38
2023-01-17T03:44:57.210Z,4.37
2023-01-17T03:45:11.571Z,4.36
2023-01-17T03:45:24.189Z,4.37
2023-01-17T03:45:37.807Z,4.37
2023-01-17T03:45:54.459Z,4.37
2023-01-17T03:46:17.462Z,4.37
2023-01-17T03:46:31.046Z,4.38
2023-01-17T03:46:43.625Z,4.38
2023-01-17T03:46:56.266Z,4.37
2023-01-17T03:47:12.010Z,4.39
2023-01-17T03:47:24.708Z,4.38
2023-01-17T03:47:38.286Z,4.38
2023-01-17T03:47:51.123Z,4.37
2023-01-17T03:48:03.946Z,4.37
2023-01-17T03:48:16.681Z,4.37
2023-01-17T03:48:29.642Z,4.37
2023-01-17T03:48:42.223Z,4.36
2023-01-17T03:48:56.088Z,4.37
2023-01-17T03:49:09.579Z,4.38
2023-01-17T03:49:22.905Z,4.37
2023-01-17T03:49:35.972Z,4.38
2023-01-17T03:49:48.705Z,4.39
2023-01-17T03:50:01.351Z,4.38
2023-01-17T03:50:14.075Z,4.39
2023-01-17T03:50:27.873Z,4.39
2023-01-17T03:50:40.435Z,4.40
2023-01-17T03:50:53.178Z,4.38
2023-01-17T03:51:06.032Z,4.38
2023-01-17T03:51:18.942Z,4.38
2023-01-17T03:51:32.524Z,4.39
2023-01-17T03:51:45.405Z,4.39
2023-01-17T03:51:58.310Z,4.39
2023-01-17T03:52:10.906Z,4.39
2023-01-17T03:52:23.470Z,4.40
2023-01-17T03:52:36.044Z,4.41
2023-01-17T03:52:48.623Z,4.41
2023-01-17T03:53:01.209Z,4.40
2023-01-17T03:53:14.767Z,4.40
2023-01-17T03:53:27.358Z,4.40
2023-01-17T03:53:40.018Z,4.39
2023-01-17T03:53:52.601Z,4.40
2023-01-17T03:54:05.529Z,4.41
2023-01-17T03:54:19.166Z,4.41
2023-01-17T03:54:31.916Z,4.40
2023-01-17T03:54:44.519Z,4.41
2023-01-17T03:54:57.120Z,4.41
2023-01-17T03:55:10.373Z,4.42
2023-01-17T03:55:23.082Z,4.41
2023-01-17T03:55:35.686Z,4.41
2023-01-17T03:55:49.609Z,4.41
2023-01-17T03:56:02.198Z,4.41
2023-01-17T03:56:15.057Z,4.41
2023-01-17T03:56:27.640Z,4.42
2023-01-17T03:56:40.203Z,4.40
2023-01-17T03:56:52.885Z,4.40
2023-01-17T03:57:05.604Z,4.41
2023-01-17T03:57:19.174Z,4.41
2023-01-17T03:57:31.767Z,4.41
2023-01-17T03:57:44.350Z,4.41
2023-01-17T03:57:56.916Z,4.41
2023-01-17T03:58:09.486Z,4.41
2023-01-17T03:58:22.072Z,4.42
2023-01-17T03:58:34.688Z,4.43
2023-01-17T03:58:47.438Z,4.42
2023-01-17T03:59:01.032Z,4.41
2023-01-17T03:59:13.632Z,4.42
2023-01-17T03:59:26.217Z,4.42
2023-01-17T03:59:38.823Z,4.43
2023-01-17T03:59:51.697Z,4.42
2023-01-17T04:00:06.281Z,4.40
2023-01-17T04:00:20.815Z,4.43
2023-01-17T04:00:33.410Z,4.43
2023-01-17T04:00:46.075Z,4.43
2023-01-17T04:01:00.183Z,4.43
2023-01-17T04:01:13.458Z,4.44